Kuantan, Malaysia
Current Conditions -  °F | °C
As of 9:00 AM on Thursday 27 Nov 2014 (Local Time) from WMKD Reporting Station
Broken Clouds Broken Clouds  
Wind Chill: 81°   Ceiling: 28000
Heat Index: 86°   Visibility: 6mi
Dew Point: 75°   Wind: 1mph
Humidity: 84%   Direction: 300°WNW
Pressure: 29.83"   Gusts: NA
Location:  3.82°N, 103.34°E
Report Text: WMKD 270100Z 30001KT 9999 FEW004 SCT160 BKN280 27/24 Q1010 NOSIG
Loading
Personal Weather Stations






























Interactive Weather Map New forecast layout! Learn more

10-Day Weather Forecast

Advertisements
Track Severe Weather on mobile